createdAt,value
2022-10-19T00:01:03.058Z,102115.34
2022-10-19T00:03:29.721Z,102099.47
2022-10-19T00:05:56.331Z,102060.06
2022-10-19T00:08:22.885Z,102069.44
2022-10-19T00:10:49.395Z,102098.38
2022-10-19T00:13:16.374Z,102125.16
2022-10-19T00:15:42.900Z,102005.34
2022-10-19T00:18:09.492Z,101998.13
2022-10-19T00:20:36.760Z,102117.28
2022-10-19T00:23:04.240Z,102091.00
2022-10-19T00:25:30.708Z,102098.69
2022-10-19T00:27:57.215Z,102061.94
2022-10-19T00:30:23.789Z,102034.53
2022-10-19T00:32:52.307Z,102064.78
2022-10-19T00:35:18.723Z,102091.19
2022-10-19T00:37:45.189Z,102002.28
2022-10-19T00:40:11.818Z,102101.63
2022-10-19T00:42:38.420Z,102095.72
2022-10-19T00:45:13.331Z,102098.56
2022-10-19T00:47:40.186Z,102101.41
2022-10-19T00:50:07.305Z,102064.19
2022-10-19T00:52:34.022Z,102045.28
2022-10-19T00:55:01.123Z,102036.31
2022-10-19T00:57:29.722Z,102049.56
2022-10-19T00:59:56.650Z,102027.50
2022-10-19T01:02:23.178Z,102108.13
2022-10-19T01:04:52.031Z,102106.13
2022-10-19T01:07:19.627Z,102102.72
2022-10-19T01:09:46.293Z,102093.00
2022-10-19T01:12:29.388Z,102108.41
2022-10-19T01:15:17.755Z,102107.50
2022-10-19T01:18:11.739Z,102110.16
2022-10-19T01:20:50.414Z,102097.19
2022-10-19T01:23:38.122Z,102090.56
2022-10-19T01:26:32.624Z,102096.44
2022-10-19T01:29:17.597Z,102097.97
2022-10-19T01:31:52.443Z,102088.75
2022-10-19T01:34:43.895Z,102096.72
2022-10-19T01:37:18.409Z,102059.03
2022-10-19T01:39:55.161Z,102096.03
2022-10-19T01:42:24.361Z,102087.78
2022-10-19T01:44:54.551Z,102077.13
2022-10-19T01:47:27.725Z,102084.03
2022-10-19T01:49:57.479Z,102043.75
2022-10-19T01:52:25.478Z,102063.22
2022-10-19T01:54:54.367Z,102060.75
2022-10-19T01:57:24.281Z,102029.88
2022-10-19T01:59:51.450Z,102067.34
2022-10-19T02:02:18.623Z,102059.84
2022-10-19T02:04:45.593Z,102045.84
2022-10-19T02:07:12.418Z,102069.41
2022-10-19T02:09:38.829Z,102065.13
2022-10-19T02:12:09.124Z,102070.63
2022-10-19T02:14:40.278Z,101966.53
2022-10-19T02:17:13.832Z,102070.94
2022-10-19T02:19:40.542Z,102047.63
2022-10-19T02:22:07.542Z,102041.56
2022-10-19T02:24:33.973Z,102057.66
2022-10-19T02:27:01.617Z,102067.56
2022-10-19T02:29:28.163Z,102064.22
2022-10-19T02:31:54.676Z,102032.09
2022-10-19T02:34:21.206Z,102066.13
2022-10-19T02:36:48.206Z,102074.50
2022-10-19T02:39:14.701Z,102079.69
2022-10-19T02:42:06.697Z,102082.28
2022-10-19T02:44:42.171Z,102080.34
2022-10-19T02:47:47.692Z,102089.63
2022-10-19T02:50:14.532Z,102084.53
2022-10-19T02:52:41.647Z,102075.41
2022-10-19T02:55:08.976Z,102081.19
2022-10-19T02:57:36.081Z,102084.53
2022-10-19T03:00:08.615Z,102074.56
2022-10-19T03:02:35.337Z,102047.38
2022-10-19T03:05:01.921Z,102081.38
2022-10-19T03:07:28.411Z,102021.59
2022-10-19T03:09:54.829Z,102042.75
2022-10-19T03:12:21.308Z,102027.97
2022-10-19T03:14:47.801Z,102074.69
2022-10-19T03:17:14.465Z,102070.72
2022-10-19T03:19:40.984Z,102072.19
2022-10-19T03:22:07.782Z,102043.66
2022-10-19T03:24:34.518Z,102038.47
2022-10-19T03:27:00.990Z,102068.72
2022-10-19T03:29:27.498Z,102067.22
2022-10-19T03:31:54.099Z,102061.56
2022-10-19T03:34:20.519Z,102056.22
2022-10-19T03:36:47.053Z,102009.94
2022-10-19T03:39:15.266Z,102043.28
2022-10-19T03:41:42.294Z,102057.19
2022-10-19T03:44:09.981Z,102063.28
2022-10-19T03:46:37.181Z,102061.56
2022-10-19T03:49:04.816Z,102070.19
2022-10-19T03:51:32.058Z,102072.59
2022-10-19T03:54:00.507Z,102042.84
2022-10-19T03:56:28.867Z,102014.25
2022-10-19T03:58:57.412Z,102078.13
2022-10-19T04:01:25.032Z,102087.41
2022-10-19T04:03:59.189Z,102081.69
2022-10-19T04:06:28.103Z,102076.59
2022-10-19T04:08:55.357Z,102061.66
2022-10-19T04:11:24.733Z,102074.22
2022-10-19T04:13:52.294Z,102074.41
2022-10-19T04:16:19.822Z,102072.13
2022-10-19T04:18:46.881Z,102064.06
2022-10-19T04:21:40.488Z,102035.78
2022-10-19T04:24:13.069Z,102071.00
2022-10-19T04:26:47.992Z,102066.50
2022-10-19T04:29:15.885Z,102030.22
2022-10-19T04:31:42.443Z,102073.56
2022-10-19T04:34:08.958Z,102067.50
2022-10-19T04:36:35.530Z,102057.94
2022-10-19T04:39:02.119Z,102036.59
2022-10-19T04:41:28.776Z,102040.44
2022-10-19T04:43:57.504Z,102076.00
2022-10-19T04:46:24.805Z,102049.72
2022-10-19T04:48:52.008Z,102071.81
2022-10-19T04:51:19.974Z,102065.72
2022-10-19T04:53:46.947Z,102014.00
2022-10-19T04:56:16.454Z,102064.88
2022-10-19T04:58:43.364Z,102018.66
2022-10-19T05:01:15.345Z,102014.53
2022-10-19T05:03:41.852Z,102039.06
2022-10-19T05:06:09.266Z,102040.53
2022-10-19T05:08:36.446Z,102049.31
2022-10-19T05:11:08.762Z,102048.00
2022-10-19T05:13:35.711Z,102054.38
2022-10-19T05:16:04.540Z,102014.19
2022-10-19T05:18:31.088Z,102031.94
2022-10-19T05:21:12.630Z,102053.44
2022-10-19T05:23:40.334Z,102046.91
2022-10-19T05:26:11.745Z,102024.47
2022-10-19T05:28:38.597Z,102025.25
2022-10-19T05:31:15.361Z,102037.03
2022-10-19T05:33:43.455Z,102025.09
2022-10-19T05:36:11.130Z,101990.09
2022-10-19T05:38:37.631Z,102033.94
2022-10-19T05:41:04.113Z,102015.31
2022-10-19T05:43:30.903Z,101989.63
2022-10-19T05:45:57.349Z,101998.59
2022-10-19T05:48:23.999Z,102038.31
2022-10-19T05:50:54.464Z,102022.81
2022-10-19T05:53:20.923Z,102029.31
2022-10-19T05:55:47.743Z,102029.31
2022-10-19T05:58:14.265Z,102033.22
2022-10-19T06:00:40.742Z,102024.22
2022-10-19T06:03:07.239Z,102031.88
2022-10-19T06:05:36.468Z,101994.91
2022-10-19T06:08:02.918Z,102027.41
2022-10-19T06:10:29.474Z,102032.03
2022-10-19T06:12:55.880Z,102045.13
2022-10-19T06:15:22.307Z,102017.53
2022-10-19T06:17:48.742Z,102008.13
2022-10-19T06:20:15.176Z,102034.31
2022-10-19T06:22:42.720Z,102006.88
2022-10-19T06:25:09.396Z,102048.31
2022-10-19T06:27:36.289Z,102010.16
2022-10-19T06:30:03.611Z,102032.59
2022-10-19T06:32:30.054Z,102068.00
2022-10-19T06:34:56.809Z,102034.84
2022-10-19T06:37:23.505Z,102065.34
2022-10-19T06:39:50.041Z,102066.34
2022-10-19T06:42:17.403Z,102022.41
2022-10-19T06:44:43.858Z,102066.75
2022-10-19T06:47:10.336Z,102069.94
2022-10-19T06:49:37.200Z,102067.66
2022-10-19T06:52:06.586Z,102047.88
2022-10-19T06:54:33.303Z,102032.88
2022-10-19T06:56:59.804Z,102080.66
2022-10-19T06:59:26.229Z,102030.22
2022-10-19T07:01:52.699Z,102073.53
2022-10-19T07:04:19.166Z,102075.97
2022-10-19T07:06:45.670Z,102051.84
2022-10-19T07:09:12.076Z,102076.75
2022-10-19T07:11:42.427Z,102074.50
2022-10-19T07:14:12.368Z,102076.44
2022-10-19T07:16:38.816Z,102069.09
2022-10-19T07:19:05.295Z,102032.00
2022-10-19T07:21:31.856Z,102049.88
2022-10-19T07:23:58.274Z,102059.44
2022-10-19T07:26:27.815Z,102068.91
2022-10-19T07:28:56.559Z,102031.53
2022-10-19T07:31:24.343Z,102060.06
2022-10-19T07:33:55.381Z,102069.19
2022-10-19T07:36:22.667Z,102067.72
2022-10-19T07:38:49.248Z,102004.84
2022-10-19T07:41:17.569Z,102067.22
2022-10-19T07:43:45.416Z,102062.28
2022-10-19T07:46:15.366Z,102059.56
2022-10-19T07:48:42.430Z,102051.75
2022-10-19T07:51:10.321Z,102069.00
2022-10-19T07:53:37.549Z,102070.69
2022-10-19T07:56:05.339Z,102054.00
2022-10-19T07:58:32.017Z,102067.34
2022-10-19T08:01:08.079Z,102059.22
2022-10-19T08:06:22.162Z,102041.78
2022-10-19T08:08:49.112Z,102039.88
2022-10-19T08:11:23.411Z,102052.19
2022-10-19T08:13:50.259Z,101947.75
2022-10-19T08:16:41.425Z,102056.47
2022-10-19T08:19:09.924Z,102060.19
2022-10-19T08:21:38.178Z,102062.13
2022-10-19T08:24:05.403Z,102066.31
2022-10-19T08:26:33.846Z,102075.34
2022-10-19T08:29:01.374Z,102064.09
2022-10-19T08:31:29.267Z,102050.84
2022-10-19T08:33:56.314Z,102062.31
2022-10-19T08:36:23.125Z,102062.91
2022-10-19T08:38:50.462Z,102060.72
2022-10-19T08:41:19.977Z,102059.88
2022-10-19T08:44:05.137Z,102016.66
2022-10-19T08:46:43.413Z,102056.31
2022-10-19T08:49:13.426Z,102058.16
2022-10-19T08:51:41.737Z,102053.28
2022-10-19T08:54:12.555Z,102022.25
2022-10-19T08:56:51.079Z,102036.69
2022-10-19T08:59:36.879Z,102063.44
2022-10-19T09:02:42.926Z,102021.75
2022-10-19T09:05:26.817Z,102039.75
2022-10-19T09:07:53.977Z,102041.38
2022-10-19T09:10:25.226Z,102057.88
2022-10-19T09:13:15.099Z,102052.19
2022-10-19T09:15:46.607Z,102052.78
2022-10-19T09:18:30.298Z,102037.16
2022-10-19T09:21:31.042Z,102050.00
2022-10-19T09:24:07.060Z,102045.63
2022-10-19T09:26:49.918Z,102033.34
2022-10-19T09:29:24.341Z,102027.25
2022-10-19T09:31:54.290Z,101999.75
2022-10-19T09:34:31.450Z,102024.31
2022-10-19T09:36:58.880Z,102002.81
2022-10-19T09:39:29.638Z,102002.78
2022-10-19T09:41:59.251Z,101999.38
2022-10-19T09:44:26.691Z,101992.66
2022-10-19T09:47:02.345Z,101996.06
2022-10-19T09:49:43.455Z,101988.97
2022-10-19T09:52:35.351Z,101982.09
2022-10-19T09:55:10.244Z,101976.22
2022-10-19T09:57:48.848Z,101939.94
2022-10-19T10:00:43.341Z,101980.38
2022-10-19T10:03:39.323Z,101967.09
2022-10-19T10:06:10.315Z,101972.38
2022-10-19T10:08:39.573Z,101954.00
2022-10-19T10:11:15.098Z,101943.78
2022-10-19T10:13:49.831Z,101958.91
2022-10-19T10:16:18.036Z,101950.97
2022-10-19T10:18:57.325Z,101943.72
2022-10-19T10:21:25.966Z,101945.72
2022-10-19T10:24:13.100Z,101942.78
2022-10-19T10:26:41.464Z,101944.38
2022-10-19T10:29:19.262Z,101929.91
2022-10-19T10:31:52.311Z,101915.81
2022-10-19T10:34:37.521Z,101935.16
2022-10-19T10:37:39.753Z,101929.47
2022-10-19T10:40:17.853Z,101896.31
2022-10-19T10:42:48.739Z,101930.81
2022-10-19T10:45:19.266Z,101921.47
2022-10-19T10:47:48.652Z,101880.78
2022-10-19T10:50:18.254Z,101926.81
2022-10-19T10:52:57.608Z,101923.19
2022-10-19T10:55:24.051Z,101920.88
2022-10-19T10:57:52.825Z,101926.25
2022-10-19T11:00:21.741Z,101925.94
2022-10-19T11:02:52.009Z,101916.25
2022-10-19T11:05:31.716Z,101885.78
2022-10-19T11:08:06.152Z,101877.50
2022-10-19T11:10:46.985Z,101907.28
2022-10-19T11:13:36.050Z,101880.03
2022-10-19T11:16:03.128Z,101891.00
2022-10-19T11:18:33.921Z,101860.78
2022-10-19T11:21:06.288Z,101871.69
2022-10-19T11:23:42.245Z,101855.84
2022-10-19T11:26:34.786Z,101865.28
2022-10-19T11:29:13.905Z,101859.47
2022-10-19T11:31:48.794Z,101845.13
2022-10-19T11:34:25.988Z,101844.19
2022-10-19T11:37:17.037Z,101832.97
2022-10-19T11:40:24.171Z,101817.84
2022-10-19T11:43:04.773Z,101836.00
2022-10-19T11:46:00.508Z,101827.88
2022-10-19T11:48:54.838Z,101817.56
2022-10-19T11:51:22.387Z,101811.44
2022-10-19T11:54:30.091Z,101810.69
2022-10-19T11:57:11.486Z,101818.41
2022-10-19T12:00:14.634Z,101802.16
2022-10-19T12:02:53.824Z,101815.03
2022-10-19T12:05:57.985Z,101819.13
2022-10-19T12:08:51.235Z,101822.16
2022-10-19T12:11:23.901Z,101813.16
2022-10-19T12:13:57.236Z,101795.44
2022-10-19T12:16:34.307Z,101818.06
2022-10-19T12:19:03.106Z,101827.34
2022-10-19T12:21:38.258Z,101787.31
2022-10-19T12:24:10.542Z,101823.88
2022-10-19T12:26:37.357Z,101794.28
2022-10-19T12:29:06.910Z,101817.34
2022-10-19T12:31:33.531Z,101784.25
2022-10-19T12:34:24.440Z,101810.34
2022-10-19T12:37:03.193Z,101772.66
2022-10-19T12:40:03.394Z,101809.50
2022-10-19T12:42:51.526Z,101792.09
2022-10-19T12:45:46.728Z,101779.94
2022-10-19T12:48:14.311Z,101781.25
2022-10-19T12:50:50.104Z,101769.94
2022-10-19T12:56:16.056Z,101765.88
2022-10-19T12:58:46.711Z,101773.25
2022-10-19T13:01:33.309Z,101762.47
2022-10-19T13:04:18.671Z,101766.56
2022-10-19T13:06:52.023Z,101754.25
2022-10-19T13:09:23.228Z,101745.16
2022-10-19T13:12:17.761Z,101739.19
2022-10-19T13:14:53.977Z,101743.94
2022-10-19T13:17:44.124Z,101741.56
2022-10-19T13:20:13.722Z,101733.53
2022-10-19T13:22:51.338Z,101741.63
2022-10-19T13:25:27.799Z,101734.97
2022-10-19T13:27:54.385Z,101735.03
2022-10-19T13:30:36.493Z,101736.59
2022-10-19T13:33:31.545Z,101721.31
2022-10-19T13:36:00.881Z,101722.47
2022-10-19T13:38:42.374Z,101718.22
2022-10-19T13:41:25.614Z,101709.97
2022-10-19T13:44:03.047Z,101700.69
2022-10-19T13:46:29.553Z,101701.84
2022-10-19T13:48:56.024Z,101709.66
2022-10-19T13:51:31.822Z,101705.53
2022-10-19T13:54:01.288Z,101704.44
2022-10-19T13:56:27.804Z,101700.88
2022-10-19T13:59:09.234Z,101697.41
2022-10-19T14:01:50.204Z,101701.63
2022-10-19T14:04:18.514Z,101687.94
2022-10-19T14:06:54.813Z,101694.16
2022-10-19T14:09:43.156Z,101687.88
2022-10-19T14:12:16.217Z,101670.50
2022-10-19T14:14:44.134Z,101686.41
2022-10-19T14:17:15.580Z,101688.78
2022-10-19T14:19:45.050Z,101676.34
2022-10-19T14:22:26.675Z,101645.25
2022-10-19T14:25:00.465Z,101655.16
2022-10-19T14:27:26.933Z,101639.25
2022-10-19T14:29:54.243Z,101673.41
2022-10-19T14:32:26.716Z,101654.19
2022-10-19T14:34:54.536Z,101669.03
2022-10-19T14:37:23.485Z,101670.47
2022-10-19T14:40:26.403Z,101645.72
2022-10-19T14:42:54.982Z,101663.25
2022-10-19T14:45:27.165Z,101660.00
2022-10-19T14:47:58.031Z,101670.44
2022-10-19T14:50:31.410Z,101658.66
2022-10-19T14:53:04.014Z,101654.03
2022-10-19T14:55:35.459Z,101625.56
2022-10-19T14:58:02.634Z,101622.44
2022-10-19T15:00:32.915Z,101635.16
2022-10-19T15:03:05.739Z,101625.94
2022-10-19T15:05:36.766Z,101638.38
2022-10-19T15:08:08.971Z,101637.69
2022-10-19T15:10:43.287Z,101611.41
2022-10-19T15:13:24.376Z,101636.38
2022-10-19T15:15:54.674Z,101604.78
2022-10-19T15:18:43.855Z,101630.03
2022-10-19T15:21:18.612Z,101622.22
2022-10-19T15:23:50.005Z,101630.94
2022-10-19T15:26:25.516Z,101617.84
2022-10-19T15:28:52.834Z,101580.66
2022-10-19T15:31:25.222Z,101623.50
2022-10-19T15:33:54.081Z,101626.25
2022-10-19T15:36:21.972Z,101618.09
2022-10-19T15:39:06.327Z,101619.69
2022-10-19T15:41:45.118Z,101618.34
2022-10-19T15:44:34.510Z,101608.00
2022-10-19T15:47:27.611Z,101611.66
2022-10-19T15:49:59.794Z,101606.31
2022-10-19T15:52:36.823Z,101613.97
2022-10-19T15:55:03.507Z,101612.00
2022-10-19T15:57:35.471Z,101600.16
2022-10-19T16:00:12.018Z,101604.91
2022-10-19T16:02:39.147Z,101578.56
2022-10-19T16:07:37.503Z,101600.75
2022-10-19T16:10:05.062Z,101594.94
2022-10-19T16:12:31.487Z,101589.63
2022-10-19T16:14:57.966Z,101551.09
2022-10-19T16:17:24.452Z,101545.25
2022-10-19T16:19:51.304Z,101596.69
2022-10-19T16:22:17.966Z,101585.66
2022-10-19T16:24:44.432Z,101591.66
2022-10-19T16:27:15.027Z,101532.69
2022-10-19T16:29:42.976Z,101577.41
2022-10-19T16:32:09.619Z,101555.63
2022-10-19T16:34:36.062Z,101576.84
2022-10-19T16:37:05.958Z,101569.06
2022-10-19T16:39:33.786Z,101554.31
2022-10-19T16:42:00.367Z,101571.75
2022-10-19T16:44:26.946Z,101562.78
2022-10-19T16:46:56.522Z,101574.66
2022-10-19T16:49:23.073Z,101558.78
2022-10-19T16:51:51.980Z,101572.59
2022-10-19T16:54:21.290Z,101577.56
2022-10-19T16:56:48.451Z,101561.81
2022-10-19T16:59:17.213Z,101577.69
2022-10-19T17:01:44.957Z,101547.50
2022-10-19T17:04:15.549Z,101549.31
2022-10-19T17:06:42.286Z,101562.03
2022-10-19T17:09:40.822Z,101561.03
2022-10-19T17:11:55.796Z,101567.84
2022-10-19T17:14:22.276Z,101556.22
2022-10-19T17:16:48.757Z,101539.38
2022-10-19T17:19:15.290Z,101511.59
2022-10-19T17:21:42.426Z,101507.47
2022-10-19T17:24:16.928Z,101529.16
2022-10-19T17:26:46.765Z,101531.75
2022-10-19T17:29:13.806Z,101529.75
2022-10-19T17:31:41.480Z,101519.94
2022-10-19T17:34:08.571Z,101515.69
2022-10-19T17:36:38.597Z,101524.97
2022-10-19T17:39:07.628Z,101521.97
2022-10-19T17:41:34.618Z,101537.38
2022-10-19T17:44:02.980Z,101537.78
2022-10-19T17:46:32.229Z,101517.59
2022-10-19T17:48:59.338Z,101520.63
2022-10-19T17:51:28.847Z,101528.09
2022-10-19T17:54:00.750Z,101543.63
2022-10-19T17:56:28.282Z,101504.91
2022-10-19T17:58:56.229Z,101545.31
2022-10-19T18:01:24.106Z,101524.03
2022-10-19T18:03:51.355Z,101548.69
2022-10-19T18:06:31.481Z,101553.34
2022-10-19T18:08:59.863Z,101545.44
2022-10-19T18:11:36.837Z,101505.59
2022-10-19T18:14:04.342Z,101533.41
2022-10-19T18:16:33.562Z,101531.69
2022-10-19T18:19:01.124Z,101544.06
2022-10-19T18:21:32.578Z,101540.66
2022-10-19T18:24:00.872Z,101537.06
2022-10-19T18:26:29.481Z,101500.31
2022-10-19T18:28:56.876Z,101534.63
2022-10-19T18:31:31.482Z,101500.28
2022-10-19T18:34:01.777Z,101536.56
2022-10-19T18:36:28.734Z,101504.16
2022-10-19T18:38:58.152Z,101514.94
2022-10-19T18:41:25.338Z,101540.97
2022-10-19T18:43:56.876Z,101532.72
2022-10-19T18:46:24.302Z,101493.56
2022-10-19T18:48:50.883Z,101531.03
2022-10-19T18:51:18.714Z,101539.69
2022-10-19T18:53:45.499Z,101514.88
2022-10-19T18:56:13.818Z,101536.72
2022-10-19T18:58:40.611Z,101521.53
2022-10-19T19:01:16.038Z,101520.97
2022-10-19T19:03:44.855Z,101513.28
2022-10-19T19:06:23.159Z,101457.72
2022-10-19T19:08:49.803Z,101505.03
2022-10-19T19:11:25.000Z,101497.25
2022-10-19T19:13:56.678Z,101503.09
2022-10-19T19:16:24.490Z,101497.50
2022-10-19T19:18:51.228Z,101516.81
2022-10-19T19:21:18.761Z,101496.53
2022-10-19T19:23:46.047Z,101472.28
2022-10-19T19:26:13.407Z,101494.44
2022-10-19T19:28:41.847Z,101492.53
2022-10-19T19:31:10.459Z,101497.97
2022-10-19T19:33:37.481Z,101470.66
2022-10-19T19:36:05.730Z,101497.47
2022-10-19T19:38:32.301Z,101476.94
2022-10-19T19:40:58.903Z,101439.47
2022-10-19T19:43:25.497Z,101463.19
2022-10-19T19:46:04.596Z,101462.31
2022-10-19T19:48:36.456Z,101464.88
2022-10-19T19:51:02.989Z,101472.41
2022-10-19T19:53:29.627Z,101427.53
2022-10-19T19:55:56.080Z,101434.97
2022-10-19T19:58:22.526Z,101451.81
2022-10-19T20:00:49.119Z,101457.38
2022-10-19T20:03:16.261Z,101445.41
2022-10-19T20:05:42.868Z,101414.38
2022-10-19T20:08:09.903Z,101451.78
2022-10-19T20:10:41.038Z,101413.31
2022-10-19T20:13:07.965Z,101426.13
2022-10-19T20:15:37.291Z,101398.03
2022-10-19T20:18:03.791Z,101378.09
2022-10-19T20:20:30.387Z,101429.56
2022-10-19T20:22:57.221Z,101433.72
2022-10-19T20:25:23.778Z,101441.28
2022-10-19T20:27:50.197Z,101436.78
2022-10-19T20:30:17.049Z,101432.69
2022-10-19T20:32:43.558Z,101440.06
2022-10-19T20:35:10.153Z,101437.41
2022-10-19T20:37:36.607Z,101438.16
2022-10-19T20:40:07.442Z,101441.09
2022-10-19T20:42:35.379Z,101441.41
2022-10-19T20:45:01.994Z,101435.50
2022-10-19T20:47:28.547Z,101385.13
2022-10-19T20:49:55.040Z,101427.78
2022-10-19T20:52:21.575Z,101385.31
2022-10-19T20:54:48.541Z,101381.63
2022-10-19T20:57:15.110Z,101407.28
2022-10-19T20:59:41.731Z,101432.75
2022-10-19T21:02:10.240Z,101399.88
2022-10-19T21:04:36.775Z,101339.31
2022-10-19T21:07:04.898Z,101393.59
2022-10-19T21:09:31.559Z,101401.78
2022-10-19T21:11:58.210Z,101402.50
2022-10-19T21:14:28.439Z,101346.56
2022-10-19T21:16:56.968Z,101352.53
2022-10-19T21:19:25.517Z,101385.69
2022-10-19T21:21:55.458Z,101391.03
2022-10-19T21:24:27.246Z,101392.41
2022-10-19T21:26:53.990Z,101389.66
2022-10-19T21:29:20.667Z,101380.38
2022-10-19T21:31:49.428Z,101388.63
2022-10-19T21:34:24.265Z,101377.41
2022-10-19T21:36:51.069Z,101352.41
2022-10-19T21:39:18.153Z,101372.22
2022-10-19T21:41:45.199Z,101371.16
2022-10-19T21:44:11.742Z,101364.47
2022-10-19T21:46:38.231Z,101366.84
2022-10-19T21:49:04.676Z,101236.78
2022-10-19T21:51:43.802Z,101373.97
2022-10-19T21:54:18.707Z,101379.00
2022-10-19T21:56:45.810Z,101371.88
2022-10-19T21:59:12.700Z,101366.75
2022-10-19T22:01:41.163Z,101343.47
2022-10-19T22:04:11.360Z,101355.69
2022-10-19T22:06:37.917Z,101354.28
2022-10-19T22:09:06.460Z,101350.25
2022-10-19T22:11:33.419Z,101302.81
2022-10-19T22:14:01.994Z,101343.22
2022-10-19T22:16:29.551Z,101345.44
2022-10-19T22:18:56.690Z,101279.88
2022-10-19T22:21:31.312Z,101327.53
2022-10-19T22:24:02.905Z,101327.84
2022-10-19T22:26:35.045Z,101318.53
2022-10-19T22:29:03.635Z,101319.69
2022-10-19T22:31:31.865Z,101310.34
2022-10-19T22:34:00.699Z,101310.94
2022-10-19T22:36:27.632Z,101270.94
2022-10-19T22:38:55.028Z,101281.91
2022-10-19T22:41:21.444Z,101293.44
2022-10-19T22:43:48.229Z,101284.56
2022-10-19T22:46:14.672Z,101243.34
2022-10-19T22:48:41.145Z,101281.47
2022-10-19T22:51:07.669Z,101280.28
2022-10-19T22:53:34.217Z,101282.88
2022-10-19T22:56:00.648Z,101289.88
2022-10-19T22:58:27.123Z,101285.50
2022-10-19T23:01:11.644Z,101276.78
2022-10-19T23:03:41.500Z,101283.13
2022-10-19T23:06:09.864Z,101279.03
2022-10-19T23:08:36.495Z,101274.97
2022-10-19T23:11:03.125Z,101270.84
2022-10-19T23:13:29.806Z,101223.16
2022-10-19T23:15:56.258Z,101233.50
2022-10-19T23:18:22.778Z,101254.72
2022-10-19T23:20:54.124Z,101229.72
2022-10-19T23:23:20.701Z,101252.47
2022-10-19T23:26:00.602Z,101237.31
2022-10-19T23:28:28.148Z,101216.13
2022-10-19T23:30:57.069Z,101262.13
2022-10-19T23:33:23.533Z,101255.34
2022-10-19T23:35:50.145Z,101250.59
2022-10-19T23:38:16.601Z,101255.31
2022-10-19T23:40:44.108Z,101242.41
2022-10-19T23:43:11.614Z,101212.03
2022-10-19T23:45:39.232Z,101245.69
2022-10-19T23:48:05.771Z,101191.44
2022-10-19T23:50:32.210Z,101235.50
2022-10-19T23:52:58.618Z,101227.81
2022-10-19T23:55:25.881Z,101226.84
2022-10-19T23:57:52.276Z,101202.06
